Avon, Pennsylvania
Current Conditions -  °F | °C
As of 3:08 AM on Saturday 01 Nov 2014 (Local Time) from KMUI Reporting Station
Overcast Overcast  
Wind Chill: 43°   Ceiling: 4200
Heat Index: 46°   Visibility: 10mi
Dew Point: 37°   Wind: 7mph
Humidity: 71%   Direction: 20°NNE
Pressure: 29.83"   Gusts: NA
Location:  40.2957°N, 76.4189°W
Report Text: KMUI 010708Z AUTO 02006KT 10SM SCT026 OVC042 08/03 A2983 RMK AO2 $
Loading
Personal Weather Stations






























Interactive Weather Map
Tropical Storm Tracking
New forecast layout! Learn more

10-Day Weather Forecast

Advertisements
Track Severe Weather on mobile